createdAt,value
2022-09-30T00:00:17.314Z,29.60
2022-09-30T00:02:18.966Z,29.70
2022-09-30T00:04:23.513Z,29.70
2022-09-30T00:06:27.134Z,29.60
2022-09-30T00:08:28.798Z,29.60
2022-09-30T00:10:30.878Z,29.70
2022-09-30T00:12:32.509Z,29.80
2022-09-30T00:14:34.261Z,29.80
2022-09-30T00:16:40.296Z,29.90
2022-09-30T00:18:43.565Z,30.00
2022-09-30T00:20:45.190Z,30.10
2022-09-30T00:22:47.014Z,30.30
2022-09-30T00:24:48.685Z,30.40
2022-09-30T00:26:50.459Z,30.50
2022-09-30T00:28:58.174Z,30.70
2022-09-30T00:31:01.202Z,31.30
2022-09-30T00:33:02.953Z,30.90
2022-09-30T00:35:05.306Z,30.80
2022-09-30T00:37:08.586Z,30.70
2022-09-30T00:39:16.632Z,30.70
2022-09-30T00:41:18.261Z,31.00
2022-09-30T00:43:41.196Z,30.90
2022-09-30T00:45:56.625Z,31.00
2022-09-30T00:48:10.028Z,31.20
2022-09-30T00:50:20.541Z,31.20
2022-09-30T00:52:22.407Z,30.90
2022-09-30T00:54:28.747Z,30.70
2022-09-30T00:56:39.221Z,30.70
2022-09-30T00:58:56.614Z,31.60
2022-09-30T01:01:01.746Z,31.40
2022-09-30T01:03:06.484Z,31.30
2022-09-30T01:05:10.809Z,31.40
2022-09-30T01:07:15.101Z,31.50
2022-09-30T01:09:18.366Z,31.50
2022-09-30T01:11:20.775Z,31.60
2022-09-30T01:13:27.297Z,31.60
2022-09-30T01:15:52.594Z,31.50
2022-09-30T01:18:03.593Z,31.70
2022-09-30T01:20:35.588Z,31.70
2022-09-30T01:22:44.495Z,32.40
2022-09-30T01:25:01.093Z,32.00
2022-09-30T01:27:15.175Z,32.60
2022-09-30T01:29:41.275Z,32.20
2022-09-30T01:32:03.394Z,32.30
2022-09-30T01:34:11.146Z,32.90
2022-09-30T01:36:37.519Z,32.30
2022-09-30T01:38:56.010Z,32.50
2022-09-30T01:41:14.498Z,32.40
2022-09-30T01:43:21.857Z,32.50
2022-09-30T01:45:39.222Z,32.40
2022-09-30T01:48:18.899Z,32.80
2022-09-30T01:50:47.975Z,33.10
2022-09-30T01:52:58.797Z,32.60
2022-09-30T01:55:23.510Z,32.90
2022-09-30T01:57:42.865Z,33.30
2022-09-30T01:59:57.437Z,32.90
2022-09-30T02:02:08.788Z,33.10
2022-09-30T02:04:19.672Z,32.70
2022-09-30T02:06:32.774Z,32.40
2022-09-30T02:08:59.828Z,32.50
2022-09-30T02:11:15.621Z,32.80
2022-09-30T02:13:24.596Z,32.90
2022-09-30T02:15:38.471Z,32.60
2022-09-30T02:18:17.081Z,32.70
2022-09-30T02:20:32.736Z,32.90
2022-09-30T02:22:50.811Z,33.10
2022-09-30T02:24:59.228Z,33.70
2022-09-30T02:27:05.769Z,33.70
2022-09-30T02:29:23.066Z,33.60
2022-09-30T02:31:27.272Z,34.60
2022-09-30T02:33:39.722Z,34.10
2022-09-30T02:35:48.977Z,34.60
2022-09-30T02:38:05.221Z,34.20
2022-09-30T02:40:13.222Z,34.40
2022-09-30T02:42:22.937Z,34.10
2022-09-30T02:44:24.956Z,34.00
2022-09-30T02:46:39.980Z,33.80
2022-09-30T02:48:47.778Z,34.20
2022-09-30T02:51:02.078Z,33.90
2022-09-30T02:53:31.714Z,33.70
2022-09-30T02:56:08.939Z,34.20
2022-09-30T02:58:16.359Z,33.70
2022-09-30T03:00:20.153Z,33.10
2022-09-30T03:02:22.097Z,33.10
2022-09-30T03:04:34.498Z,33.10
2022-09-30T03:06:39.225Z,33.30
2022-09-30T03:08:41.718Z,33.20
2022-09-30T03:10:44.729Z,33.20
2022-09-30T03:13:05.952Z,33.30
2022-09-30T03:15:30.750Z,33.70
2022-09-30T03:17:57.770Z,33.60
2022-09-30T03:20:22.313Z,33.20
2022-09-30T03:23:00.431Z,32.90
2022-09-30T03:25:11.901Z,32.70
2022-09-30T03:27:22.229Z,32.50
2022-09-30T03:29:43.804Z,32.60
2022-09-30T03:31:55.950Z,32.70
2022-09-30T03:34:07.981Z,32.50
2022-09-30T03:36:20.029Z,32.50
2022-09-30T03:38:33.918Z,32.40
2022-09-30T03:40:52.369Z,32.20
2022-09-30T03:43:04.927Z,32.30
2022-09-30T03:45:20.176Z,32.60
2022-09-30T03:47:25.015Z,32.70
2022-09-30T03:49:41.841Z,32.60
2022-09-30T03:51:46.344Z,33.00
2022-09-30T03:53:48.146Z,32.90
2022-09-30T03:55:52.881Z,32.80
2022-09-30T03:57:54.632Z,32.80
2022-09-30T03:59:58.838Z,32.80
2022-09-30T04:02:00.586Z,32.80
2022-09-30T04:04:05.468Z,32.70
2022-09-30T04:06:11.655Z,32.60
2022-09-30T04:08:13.422Z,32.60
2022-09-30T04:10:20.637Z,32.40
2022-09-30T04:12:23.050Z,32.40
2022-09-30T04:14:24.869Z,32.40
2022-09-30T04:16:26.870Z,32.30
2022-09-30T04:18:30.431Z,32.40
2022-09-30T04:20:33.158Z,32.50
2022-09-30T04:22:34.875Z,32.50
2022-09-30T04:24:41.354Z,32.50
2022-09-30T04:26:43.017Z,32.50
2022-09-30T04:28:44.728Z,32.40
2022-09-30T04:30:46.602Z,32.50
2022-09-30T04:32:48.313Z,32.50
2022-09-30T04:34:50.175Z,32.30
2022-09-30T04:36:53.171Z,31.90
2022-09-30T04:38:57.899Z,31.80
2022-09-30T04:41:03.998Z,31.80
2022-09-30T04:43:06.319Z,31.90
2022-09-30T04:45:09.346Z,32.60
2022-09-30T04:47:11.237Z,32.10
2022-09-30T04:49:14.992Z,32.10
2022-09-30T04:51:19.397Z,32.20
2022-09-30T04:53:21.038Z,32.40
2022-09-30T04:55:23.346Z,32.40
2022-09-30T04:57:25.358Z,32.40
2022-09-30T04:59:27.226Z,32.60
2022-09-30T05:01:28.861Z,32.60
2022-09-30T05:03:30.535Z,32.60
2022-09-30T05:05:33.570Z,32.70
2022-09-30T05:07:35.221Z,32.70
2022-09-30T05:09:37.011Z,32.60
2022-09-30T05:11:42.136Z,32.60
2022-09-30T05:13:44.715Z,32.60
2022-09-30T05:15:49.409Z,32.50
2022-09-30T05:17:51.542Z,32.40
2022-09-30T05:19:53.259Z,32.20
2022-09-30T05:21:54.961Z,32.20
2022-09-30T05:23:56.895Z,32.20
2022-09-30T05:25:59.741Z,32.20
2022-09-30T05:28:04.039Z,32.10
2022-09-30T05:30:06.637Z,32.20
2022-09-30T05:32:08.307Z,32.30
2022-09-30T05:34:10.626Z,32.30
2022-09-30T05:36:18.013Z,32.30
2022-09-30T05:38:21.925Z,32.30
2022-09-30T05:40:23.661Z,32.10
2022-09-30T05:42:25.393Z,32.00
2022-09-30T05:44:27.197Z,32.20
2022-09-30T05:46:31.810Z,32.20
2022-09-30T05:48:36.251Z,32.10
2022-09-30T05:50:40.049Z,32.30
2022-09-30T05:52:41.678Z,32.40
2022-09-30T05:54:43.299Z,32.20
2022-09-30T05:56:44.986Z,32.30
2022-09-30T05:58:47.130Z,32.30
2022-09-30T06:00:51.155Z,32.30
2022-09-30T06:02:52.932Z,32.40
2022-09-30T06:04:54.598Z,32.50
2022-09-30T06:06:56.238Z,32.60
2022-09-30T06:08:58.023Z,32.50
2022-09-30T06:11:00.053Z,32.60
2022-09-30T06:13:05.285Z,32.50
2022-09-30T06:15:07.671Z,32.70
2022-09-30T06:17:15.392Z,32.70
2022-09-30T06:19:17.031Z,32.80
2022-09-30T06:21:19.297Z,33.00
2022-09-30T06:23:24.192Z,33.10
2022-09-30T06:25:34.997Z,33.30
2022-09-30T06:27:39.682Z,33.30
2022-09-30T06:29:43.837Z,33.00
2022-09-30T06:31:45.669Z,33.20
2022-09-30T06:33:47.400Z,33.90
2022-09-30T06:35:50.182Z,33.10
2022-09-30T06:37:52.446Z,33.20
2022-09-30T06:39:59.428Z,33.40
2022-09-30T06:42:02.018Z,33.50
2022-09-30T06:44:03.775Z,33.60
2022-09-30T06:46:16.116Z,33.70
2022-09-30T06:48:34.026Z,33.90
2022-09-30T06:50:46.347Z,34.10
2022-09-30T06:52:52.448Z,34.30
2022-09-30T06:54:56.600Z,34.50
2022-09-30T06:56:58.373Z,34.80
2022-09-30T06:59:02.175Z,34.70
2022-09-30T07:01:05.909Z,34.80
2022-09-30T07:03:17.482Z,35.00
2022-09-30T07:05:19.764Z,34.90
2022-09-30T07:07:21.897Z,34.90
2022-09-30T07:09:24.485Z,34.80
2022-09-30T07:11:26.555Z,34.90
2022-09-30T07:13:28.814Z,35.90
2022-09-30T07:15:30.586Z,35.30
2022-09-30T07:17:32.711Z,34.90
2022-09-30T07:19:36.740Z,34.70
2022-09-30T07:21:38.404Z,34.90
2022-09-30T07:23:47.154Z,34.80
2022-09-30T07:25:57.393Z,34.80
2022-09-30T07:28:00.024Z,35.80
2022-09-30T07:30:10.199Z,35.60
2022-09-30T07:32:17.123Z,36.00
2022-09-30T07:34:19.115Z,36.20
2022-09-30T07:36:31.273Z,36.40
2022-09-30T07:38:38.046Z,36.60
2022-09-30T07:40:42.441Z,36.90
2022-09-30T07:42:45.614Z,36.80
2022-09-30T07:44:55.110Z,37.00
2022-09-30T07:46:59.844Z,37.40
2022-09-30T07:49:06.944Z,37.70
2022-09-30T07:51:10.121Z,37.70
2022-09-30T07:53:11.826Z,38.00
2022-09-30T07:55:13.502Z,38.40
2022-09-30T07:57:15.377Z,38.50
2022-09-30T07:59:17.968Z,38.50
2022-09-30T08:01:19.700Z,38.90
2022-09-30T08:03:21.465Z,39.00
2022-09-30T08:05:24.041Z,38.90
2022-09-30T08:07:25.694Z,39.00
2022-09-30T08:09:31.450Z,38.20
2022-09-30T08:11:34.688Z,38.70
2022-09-30T08:13:37.001Z,38.80
2022-09-30T08:15:38.679Z,38.70
2022-09-30T08:17:42.993Z,38.30
2022-09-30T08:19:44.773Z,37.80
2022-09-30T08:21:46.922Z,37.90
2022-09-30T08:23:53.038Z,38.00
2022-09-30T08:26:10.615Z,39.20
2022-09-30T08:28:15.165Z,39.80
2022-09-30T08:30:21.479Z,39.50
2022-09-30T08:32:23.184Z,39.30
2022-09-30T08:34:25.228Z,39.10
2022-09-30T08:36:27.931Z,39.10
2022-09-30T08:38:29.852Z,38.80
2022-09-30T08:40:35.912Z,38.80
2022-09-30T08:43:09.005Z,39.00
2022-09-30T08:45:25.344Z,39.70
2022-09-30T08:47:44.447Z,39.50
2022-09-30T08:50:06.204Z,39.40
2022-09-30T08:52:30.386Z,38.80
2022-09-30T08:54:44.727Z,38.40
2022-09-30T08:56:47.064Z,38.40
2022-09-30T08:58:51.620Z,38.50
2022-09-30T09:01:01.104Z,38.60
2022-09-30T09:03:03.933Z,38.50
2022-09-30T09:05:09.455Z,38.20
2022-09-30T09:07:11.508Z,37.90
2022-09-30T09:09:32.851Z,37.60
2022-09-30T09:12:12.401Z,38.10
2022-09-30T09:14:28.930Z,37.60
2022-09-30T09:16:42.618Z,36.80
2022-09-30T09:19:10.765Z,37.00
2022-09-30T09:21:27.278Z,36.20
2022-09-30T09:23:32.811Z,36.10
2022-09-30T09:25:34.584Z,36.30
2022-09-30T09:27:36.308Z,36.30
2022-09-30T09:30:22.878Z,36.30
2022-09-30T09:32:26.481Z,36.90
2022-09-30T09:34:35.832Z,36.90
2022-09-30T09:37:12.774Z,36.50
2022-09-30T09:39:23.675Z,36.40
2022-09-30T09:42:03.090Z,36.80
2022-09-30T09:44:17.287Z,36.00
2022-09-30T09:46:40.933Z,35.50
2022-09-30T09:48:45.808Z,34.60
2022-09-30T09:51:12.964Z,34.80
2022-09-30T09:53:40.038Z,34.10
2022-09-30T09:55:42.510Z,33.90
2022-09-30T09:57:46.418Z,33.30
2022-09-30T10:00:23.679Z,31.70
2022-09-30T10:02:31.472Z,31.60
2022-09-30T10:04:35.177Z,31.60
2022-09-30T10:06:47.350Z,32.20
2022-09-30T10:08:56.886Z,31.60
2022-09-30T10:11:03.158Z,31.60
2022-09-30T10:13:04.805Z,31.90
2022-09-30T10:15:33.503Z,31.80
2022-09-30T10:17:37.590Z,30.20
2022-09-30T10:19:52.098Z,29.80
2022-09-30T10:22:08.734Z,29.40
2022-09-30T10:24:31.336Z,29.50
2022-09-30T10:26:49.124Z,29.30
2022-09-30T10:28:56.980Z,28.70
2022-09-30T10:31:05.604Z,28.50
2022-09-30T10:33:19.841Z,28.30
2022-09-30T10:35:24.524Z,27.90
2022-09-30T10:37:26.237Z,27.60
2022-09-30T10:39:31.206Z,27.10
2022-09-30T10:41:35.778Z,26.20
2022-09-30T10:43:46.017Z,26.50
2022-09-30T10:46:06.967Z,26.60
2022-09-30T10:48:19.609Z,26.60
2022-09-30T10:50:24.987Z,26.90
2022-09-30T10:52:33.763Z,26.20
2022-09-30T10:54:56.797Z,26.20
2022-09-30T10:57:03.805Z,25.90
2022-09-30T10:59:16.497Z,25.60
2022-09-30T11:01:38.277Z,25.10
2022-09-30T11:04:05.281Z,24.10
2022-09-30T11:06:11.821Z,22.90
2022-09-30T11:08:32.340Z,22.20
2022-09-30T11:10:39.960Z,22.00
2022-09-30T11:12:57.140Z,22.50
2022-09-30T11:15:17.575Z,21.70
2022-09-30T11:17:47.442Z,21.90
2022-09-30T11:20:23.073Z,20.60
2022-09-30T11:22:47.188Z,21.30
2022-09-30T11:24:52.382Z,20.30
2022-09-30T11:27:03.366Z,19.10
2022-09-30T11:29:44.625Z,17.90
2022-09-30T11:32:08.341Z,19.30
2022-09-30T11:34:31.815Z,19.80
2022-09-30T11:36:33.406Z,20.10
2022-09-30T11:39:14.166Z,19.30
2022-09-30T11:41:45.184Z,19.10
2022-09-30T11:43:52.659Z,18.60
2022-09-30T11:46:00.645Z,18.20
2022-09-30T11:48:32.840Z,18.20
2022-09-30T11:51:02.647Z,19.40
2022-09-30T11:53:26.141Z,19.70
2022-09-30T11:55:49.374Z,19.10
2022-09-30T11:58:36.258Z,18.80
2022-09-30T12:00:33.855Z,18.50
2022-09-30T12:02:38.254Z,18.70
2022-09-30T12:04:44.257Z,18.30
2022-09-30T12:07:20.205Z,18.00
2022-09-30T12:09:38.852Z,17.40
2022-09-30T12:11:45.302Z,17.40
2022-09-30T12:13:58.939Z,17.70
2022-09-30T12:16:03.801Z,17.60
2022-09-30T12:18:14.803Z,17.80
2022-09-30T12:20:37.363Z,16.50
2022-09-30T12:22:44.392Z,17.20
2022-09-30T12:24:46.087Z,17.20
2022-09-30T12:26:48.340Z,17.20
2022-09-30T12:29:22.017Z,17.60
2022-09-30T12:31:46.156Z,16.60
2022-09-30T12:34:06.367Z,17.20
2022-09-30T12:36:17.556Z,17.70
2022-09-30T12:38:36.618Z,16.90
2022-09-30T12:41:02.981Z,17.50
2022-09-30T12:43:26.286Z,17.50
2022-09-30T12:45:46.078Z,17.90
2022-09-30T12:47:54.649Z,17.40
2022-09-30T12:49:58.931Z,17.10
2022-09-30T12:52:07.028Z,16.80
2022-09-30T12:54:32.193Z,16.60
2022-09-30T12:56:40.082Z,17.10
2022-09-30T12:58:46.921Z,16.70
2022-09-30T13:01:18.086Z,17.10
2022-09-30T13:03:20.398Z,16.70
2022-09-30T13:05:51.904Z,17.10
2022-09-30T13:08:11.240Z,17.70
2022-09-30T13:10:27.571Z,17.60
2022-09-30T13:13:09.910Z,17.70
2022-09-30T13:15:41.526Z,17.40
2022-09-30T13:17:43.272Z,17.50
2022-09-30T13:19:54.668Z,16.90
2022-09-30T13:22:29.529Z,16.70
2022-09-30T13:24:57.118Z,17.20
2022-09-30T13:27:13.379Z,16.90
2022-09-30T13:29:15.612Z,16.70
2022-09-30T13:31:19.731Z,17.10
2022-09-30T13:33:42.795Z,16.90
2022-09-30T13:35:47.836Z,16.40
2022-09-30T13:38:12.094Z,15.10
2022-09-30T13:40:18.593Z,14.90
2022-09-30T13:42:29.121Z,15.30
2022-09-30T13:45:01.706Z,14.00
2022-09-30T13:47:17.674Z,14.40
2022-09-30T13:49:43.603Z,14.80
2022-09-30T13:51:48.289Z,15.20
2022-09-30T13:53:55.227Z,15.30
2022-09-30T13:55:59.904Z,14.90
2022-09-30T13:58:24.286Z,15.50
2022-09-30T14:00:28.768Z,15.60
2022-09-30T14:02:50.846Z,15.20
2022-09-30T14:05:27.951Z,15.00
2022-09-30T14:08:06.013Z,15.30
2022-09-30T14:10:31.997Z,14.60
2022-09-30T14:12:56.746Z,14.50
2022-09-30T14:15:13.779Z,14.20
2022-09-30T14:17:43.949Z,14.10
2022-09-30T14:20:09.736Z,14.10
2022-09-30T14:22:15.279Z,14.30
2022-09-30T14:24:26.428Z,14.30
2022-09-30T14:26:31.400Z,14.10
2022-09-30T14:28:47.406Z,14.20
2022-09-30T14:31:08.382Z,14.70
2022-09-30T14:33:11.832Z,14.10
2022-09-30T14:35:25.058Z,14.30
2022-09-30T14:37:30.422Z,14.80
2022-09-30T14:39:32.812Z,14.80
2022-09-30T14:41:34.711Z,14.90
2022-09-30T14:43:42.839Z,15.10
2022-09-30T14:45:49.936Z,15.30
2022-09-30T14:47:55.593Z,16.10
2022-09-30T14:50:00.733Z,15.10
2022-09-30T14:52:03.942Z,15.30
2022-09-30T14:54:16.502Z,15.50
2022-09-30T14:56:30.688Z,15.90
2022-09-30T14:58:44.533Z,15.90
2022-09-30T15:01:00.439Z,16.00
2022-09-30T15:03:02.961Z,16.00
2022-09-30T15:05:05.277Z,15.70
2022-09-30T15:07:11.800Z,15.70
2022-09-30T15:09:31.843Z,15.90
2022-09-30T15:11:39.514Z,15.70
2022-09-30T15:13:43.863Z,15.90
2022-09-30T15:15:45.840Z,16.10
2022-09-30T15:17:47.623Z,16.30
2022-09-30T15:19:51.157Z,15.80
2022-09-30T15:22:02.213Z,15.20
2022-09-30T15:24:06.572Z,15.00
2022-09-30T15:26:12.725Z,15.20
2022-09-30T15:28:14.565Z,15.30
2022-09-30T15:30:19.692Z,15.00
2022-09-30T15:32:24.434Z,15.10
2022-09-30T15:34:30.330Z,15.40
2022-09-30T15:36:35.833Z,15.50
2022-09-30T15:38:38.314Z,15.80
2022-09-30T15:40:53.130Z,15.80
2022-09-30T15:43:01.194Z,16.20
2022-09-30T15:45:06.173Z,16.30
2022-09-30T15:47:10.127Z,16.30
2022-09-30T15:49:45.051Z,16.30
2022-09-30T15:51:46.752Z,16.30
2022-09-30T15:53:48.729Z,16.40
2022-09-30T15:55:57.969Z,16.60
2022-09-30T15:58:01.234Z,16.80
2022-09-30T16:00:07.689Z,16.70
2022-09-30T16:02:14.313Z,16.60
2022-09-30T16:04:15.945Z,16.80
2022-09-30T16:06:29.087Z,16.80
2022-09-30T16:08:33.272Z,16.80
2022-09-30T16:10:37.509Z,16.80
2022-09-30T16:12:42.397Z,16.80
2022-09-30T16:15:12.133Z,16.90
2022-09-30T16:17:52.615Z,17.10
2022-09-30T16:19:58.856Z,16.90
2022-09-30T16:22:00.751Z,16.70
2022-09-30T16:24:02.504Z,16.90
2022-09-30T16:26:32.665Z,17.00
2022-09-30T16:28:36.994Z,17.20
2022-09-30T16:30:45.871Z,17.70
2022-09-30T16:32:50.755Z,16.80
2022-09-30T16:34:52.562Z,16.90
2022-09-30T16:37:03.349Z,16.80
2022-09-30T16:39:05.012Z,16.90
2022-09-30T16:41:09.287Z,16.80
2022-09-30T16:43:13.043Z,16.90
2022-09-30T16:45:15.082Z,17.00
2022-09-30T16:47:21.413Z,17.10
2022-09-30T16:49:23.068Z,17.20
2022-09-30T16:51:24.826Z,17.30
2022-09-30T16:53:26.482Z,17.50
2022-09-30T16:55:29.326Z,17.70
2022-09-30T16:57:31.033Z,17.90
2022-09-30T16:59:33.151Z,18.00
2022-09-30T17:01:34.781Z,18.10
2022-09-30T17:03:36.708Z,18.30
2022-09-30T17:05:41.359Z,18.40
2022-09-30T17:07:44.396Z,18.40
2022-09-30T17:09:46.535Z,18.30
2022-09-30T17:11:49.790Z,18.30
2022-09-30T17:13:55.823Z,18.30
2022-09-30T17:16:01.766Z,18.20
2022-09-30T17:18:08.672Z,18.20
2022-09-30T17:20:10.643Z,18.30
2022-09-30T17:22:12.276Z,18.20
2022-09-30T17:24:13.911Z,18.10
2022-09-30T17:26:18.115Z,18.10
2022-09-30T17:28:20.079Z,18.10
2022-09-30T17:30:21.914Z,18.10
2022-09-30T17:32:23.707Z,18.20
2022-09-30T17:34:27.801Z,18.20
2022-09-30T17:36:32.244Z,18.20
2022-09-30T17:38:34.566Z,18.20
2022-09-30T17:40:55.481Z,18.20
2022-09-30T17:43:12.776Z,18.20
2022-09-30T17:45:14.479Z,18.20
2022-09-30T17:47:18.346Z,18.30
2022-09-30T17:49:24.269Z,18.20
2022-09-30T17:51:26.097Z,18.40
2022-09-30T17:53:29.163Z,18.40
2022-09-30T17:55:32.991Z,18.90
2022-09-30T17:57:38.361Z,18.40
2022-09-30T17:59:40.277Z,18.50
2022-09-30T18:01:42.017Z,18.40
2022-09-30T18:03:45.724Z,18.50
2022-09-30T18:05:47.368Z,18.50
2022-09-30T18:07:49.024Z,18.50
2022-09-30T18:09:51.053Z,18.70
2022-09-30T18:11:54.378Z,18.60
2022-09-30T18:13:57.925Z,18.70
2022-09-30T18:16:01.929Z,18.70
2022-09-30T18:18:03.735Z,18.80
2022-09-30T18:20:13.346Z,18.90
2022-09-30T18:22:14.979Z,19.00
2022-09-30T18:24:41.166Z,19.20
2022-09-30T18:26:43.203Z,19.30
2022-09-30T18:28:45.349Z,19.20
2022-09-30T18:30:47.121Z,19.40
2022-09-30T18:32:52.069Z,19.60
2022-09-30T18:34:54.298Z,19.90
2022-09-30T18:36:58.369Z,19.90
2022-09-30T18:39:01.950Z,20.10
2022-09-30T18:41:07.382Z,20.40
2022-09-30T18:43:12.889Z,20.50
2022-09-30T18:45:15.220Z,20.70
2022-09-30T18:47:18.143Z,20.90
2022-09-30T18:49:19.854Z,21.00
2022-09-30T18:51:24.494Z,21.30
2022-09-30T18:53:26.146Z,21.30
2022-09-30T18:55:28.378Z,21.60
2022-09-30T18:57:32.432Z,21.70
2022-09-30T18:59:34.058Z,21.90
2022-09-30T19:01:38.372Z,22.00
2022-09-30T19:03:40.559Z,22.10
2022-09-30T19:05:42.247Z,22.20
2022-09-30T19:07:43.877Z,22.40
2022-09-30T19:09:46.782Z,22.40
2022-09-30T19:11:51.526Z,22.40
2022-09-30T19:13:53.442Z,22.30
2022-09-30T19:15:55.242Z,22.30
2022-09-30T19:17:57.417Z,22.30
2022-09-30T19:20:02.211Z,22.30
2022-09-30T19:22:04.071Z,22.30
2022-09-30T19:24:08.187Z,22.30
2022-09-30T19:26:12.571Z,22.30
2022-09-30T19:28:14.694Z,22.20
2022-09-30T19:30:16.541Z,22.20
2022-09-30T19:32:19.759Z,22.20
2022-09-30T19:34:31.214Z,22.20
2022-09-30T19:36:46.988Z,22.20
2022-09-30T19:39:03.213Z,22.10
2022-09-30T19:41:07.664Z,22.10
2022-09-30T19:43:09.277Z,22.10
2022-09-30T19:45:12.296Z,22.20
2022-09-30T19:47:13.938Z,22.10
2022-09-30T19:49:15.940Z,22.30
2022-09-30T19:51:20.086Z,22.40
2022-09-30T19:53:30.147Z,22.40
2022-09-30T19:55:42.950Z,22.40
2022-09-30T19:57:47.119Z,22.60
2022-09-30T19:59:48.800Z,22.60
2022-09-30T20:01:50.497Z,22.50
2022-09-30T20:03:53.979Z,22.50
2022-09-30T20:05:58.713Z,22.60
2022-09-30T20:08:05.867Z,22.70
2022-09-30T20:10:07.947Z,22.70
2022-09-30T20:12:13.112Z,22.70
2022-09-30T20:14:36.277Z,22.80
2022-09-30T20:16:42.825Z,22.80
2022-09-30T20:18:44.688Z,22.90
2022-09-30T20:20:47.354Z,22.80
2022-09-30T20:22:49.087Z,22.90
2022-09-30T20:24:50.744Z,23.00
2022-09-30T20:26:52.865Z,23.10
2022-09-30T20:28:58.790Z,23.20
2022-09-30T20:31:07.425Z,23.40
2022-09-30T20:33:09.073Z,23.50
2022-09-30T20:35:11.454Z,23.50
2022-09-30T20:37:13.151Z,24.10
2022-09-30T20:39:14.944Z,23.60
2022-09-30T20:41:16.701Z,23.60
2022-09-30T20:43:18.324Z,23.70
2022-09-30T20:45:19.962Z,23.70
2022-09-30T20:47:21.633Z,23.70
2022-09-30T20:49:23.945Z,23.60
2022-09-30T20:51:26.774Z,23.60
2022-09-30T20:53:29.340Z,23.70
2022-09-30T20:55:34.005Z,23.80
2022-09-30T20:57:35.807Z,24.00
2022-09-30T20:59:37.692Z,23.90
2022-09-30T21:01:39.376Z,23.90
2022-09-30T21:03:41.743Z,24.00
2022-09-30T21:05:52.524Z,24.10
2022-09-30T21:07:54.299Z,24.30
2022-09-30T21:09:56.024Z,24.30
2022-09-30T21:12:00.324Z,24.40
2022-09-30T21:14:02.010Z,24.60
2022-09-30T21:16:05.568Z,24.60
2022-09-30T21:18:07.732Z,24.60
2022-09-30T21:20:09.815Z,24.70
2022-09-30T21:22:11.522Z,24.70
2022-09-30T21:24:18.245Z,24.80
2022-09-30T21:26:20.830Z,24.80
2022-09-30T21:28:22.643Z,24.90
2022-09-30T21:30:24.728Z,25.10
2022-09-30T21:32:26.734Z,25.00
2022-09-30T21:34:28.398Z,25.10
2022-09-30T21:36:32.047Z,25.00
2022-09-30T21:38:34.162Z,25.20
2022-09-30T21:40:35.952Z,25.20
2022-09-30T21:42:38.045Z,25.00
2022-09-30T21:44:41.797Z,25.10
2022-09-30T21:46:48.203Z,25.10
2022-09-30T21:48:53.533Z,25.20
2022-09-30T21:50:56.238Z,25.20
2022-09-30T21:52:59.889Z,25.20
2022-09-30T21:55:04.659Z,25.20
2022-09-30T21:57:07.392Z,25.30
2022-09-30T21:59:10.019Z,25.50
2022-09-30T22:01:12.976Z,25.50
2022-09-30T22:03:15.699Z,25.40
2022-09-30T22:05:20.587Z,25.50
2022-09-30T22:07:25.005Z,25.60
2022-09-30T22:09:26.651Z,25.60
2022-09-30T22:11:30.790Z,25.80
2022-09-30T22:13:32.891Z,25.80
2022-09-30T22:15:34.886Z,25.80
2022-09-30T22:17:36.539Z,26.10
2022-09-30T22:19:40.543Z,26.50
2022-09-30T22:21:47.678Z,25.90
2022-09-30T22:23:49.887Z,26.10
2022-09-30T22:25:51.675Z,26.10
2022-09-30T22:27:53.347Z,26.20
2022-09-30T22:29:55.064Z,26.30
2022-09-30T22:31:56.813Z,26.20
2022-09-30T22:34:45.387Z,26.30
2022-09-30T22:37:06.270Z,26.30
2022-09-30T22:39:08.011Z,26.40
2022-09-30T22:41:09.638Z,26.50
2022-09-30T22:43:13.525Z,26.40
2022-09-30T22:45:15.249Z,26.60
2022-09-30T22:47:20.078Z,26.60
2022-09-30T22:49:22.861Z,26.70
2022-09-30T22:51:24.713Z,26.90
2022-09-30T22:53:28.276Z,26.90
2022-09-30T22:55:30.459Z,26.90
2022-09-30T22:57:34.259Z,27.00
2022-09-30T22:59:36.445Z,27.00
2022-09-30T23:01:40.334Z,27.00
2022-09-30T23:03:44.936Z,27.10
2022-09-30T23:05:50.011Z,27.00
2022-09-30T23:07:53.087Z,27.50
2022-09-30T23:09:54.764Z,27.00
2022-09-30T23:11:56.914Z,26.90
2022-09-30T23:13:59.393Z,26.80
2022-09-30T23:16:01.637Z,26.80
2022-09-30T23:18:03.371Z,26.70
2022-09-30T23:20:05.519Z,26.70
2022-09-30T23:22:07.966Z,26.70
2022-09-30T23:24:09.959Z,27.30
2022-09-30T23:26:20.123Z,26.90
2022-09-30T23:28:21.775Z,26.80
2022-09-30T23:30:23.507Z,26.90
2022-09-30T23:32:25.121Z,26.90
2022-09-30T23:34:32.022Z,26.90
2022-09-30T23:36:38.013Z,26.90
2022-09-30T23:38:39.718Z,26.90
2022-09-30T23:40:48.341Z,26.80
2022-09-30T23:42:50.364Z,26.80
2022-09-30T23:44:51.990Z,26.80
2022-09-30T23:47:12.427Z,26.80
2022-09-30T23:49:16.222Z,26.90
2022-09-30T23:51:19.122Z,26.80
2022-09-30T23:53:22.595Z,26.80
2022-09-30T23:55:25.385Z,26.80
2022-09-30T23:57:29.375Z,26.90
2022-09-30T23:59:32.698Z,26.90
